Data for 01/01/2011

Time Sea-Level Adjusted Pressure Absolute Pressure Temperature Relative Humidity Dew Point   
(mb) (inHg) (mb) (inHg) (C) (F) (%) (C) (F)
00:05 1015 29.97 844 24.92 -18.4 -1.1 71 -22.5 -8.5
00:10 1015 29.97 844 24.92 -18.6 -1.4 74 -22.2 -7.9
00:15 1015 29.97 844 24.92 -18.3 -0.9 73 -22.1 -7.7
00:20 1015 29.97 844 24.92 -18.2 -0.7 74 -21.7 -7.1
00:25 1015 29.97 844 24.92 -18.2 -0.7 72 -22 -7.6
00:30 1015 29.97 844 24.92 -18.2 -0.7 73 -21.9 -7.4
00:35 1015 29.97 844 24.92 -18.3 -1 75 -21.8 -7.2
00:40 1015 29.97 844 24.92 -18.4 -1 76 -21.7 -7
00:45 1015 29.97 844 24.92 -18.2 -0.8 76 -21.5 -6.7
00:50 1015 29.97 844 24.92 -18.1 -0.6 78 -21.1 -5.9
00:55 1015 29.97 844 24.92 -18.1 -0.7 78 -21.1 -6
01:00 1015 29.97 844 24.92 -18.4 -1.2 79 -21.2 -6.2
01:05 1015 29.97 844 24.92 -18.5 -1.2 79 -21.2 -6.2
01:10 1015 29.97 844 24.92 -18.5 -1.2 80 -21.1 -5.9
01:15 1015 29.97 844 24.92 -18.4 -1.1 81 -20.9 -5.6
01:20 1015 29.97 844 24.92 -18.3 -0.9 81 -20.8 -5.5
01:25 1015 29.97 844 24.92 -18.1 -0.5 81 -20.5 -5
01:30 1015 29.97 844 24.92 -17.9 -0.1 81 -20.3 -4.6
01:35 1015 29.97 844 24.92 -17.7 0.2 81 -20.2 -4.4
01:40 1015 29.97 844 24.92 -17.7 0.1 80 -20.4 -4.6
01:45 1015 29.97 844 24.92 -17.9 -0.1 81 -20.4 -4.7
01:50 1015 29.97 844 24.92 -17.9 -0.3 81 -20.5 -4.9
01:55 1015 29.97 844 24.92 -18.1 -0.6 82 -20.5 -4.8
02:00 1015 29.97 844 24.92 -18.1 -0.5 82 -20.4 -4.7
02:05 1015 29.97 844 24.92 -17.9 -0.2 81 -20.4 -4.6
02:10 1015 29.97 844 24.92 -18.1 -0.5 83 -20.4 -4.6
02:15 1015 29.97 844 24.92 -18.2 -0.8 84 -20.4 -4.6
02:20 1015 29.97 844 24.92 -18 -0.5 84 -20.1 -4.2
02:25 1015 29.97 844 24.92 -17.7 0.2 83 -19.8 -3.7
02:30 1015 29.97 844 24.92 -17.3 0.8 82 -19.7 -3.4
02:35 1015 29.97 845 24.95 -17.2 1.1 81 -19.6 -3.3
02:40 1015 29.97 845 24.95 -17.2 1 81 -19.7 -3.4
02:45 1015 29.97 845 24.95 -17.1 1.3 81 -19.6 -3.3
02:50 1015 29.97 845 24.95 -17.1 1.3 82 -19.5 -3.1
02:55 1015 29.97 845 24.95 -17.1 1.2 83 -19.4 -2.9
03:00 1015 29.97 845 24.95 -17 1.5 82 -19.3 -2.8
03:05 1015 29.97 845 24.95 -16.9 1.5 81 -19.4 -2.9
03:10 1015 29.97 845 24.95 -17.1 1.3 82 -19.5 -3
03:15 1015 29.97 845 24.95 -17.1 1.2 82 -19.4 -3
03:20 1015 29.97 845 24.95 -17.1 1.3 83 -19.4 -2.9
03:25 1015 29.97 845 24.95 -17 1.5 83 -19.3 -2.7
03:30 1015 29.97 845 24.95 -16.9 1.7 83 -19.1 -2.5
03:35 1015 29.97 845 24.95 -16.8 1.7 82 -19.2 -2.5
03:40 1016 30 845 24.95 -16.9 1.7 83 -19.1 -2.4
03:45 1016 30 845 24.95 -16.9 1.7 83 -19.2 -2.5
03:50 1016 30 845 24.95 -16.9 1.7 82 -19.2 -2.6
03:55 1016 30 845 24.95 -17 1.5 83 -19.3 -2.7
04:00 1016 30 845 24.95 -17 1.5 83 -19.3 -2.7
04:05 1016 30 845 24.95 -17 1.4 83 -19.3 -2.7
04:10 1016 30 845 24.95 -16.9 1.6 83 -19.2 -2.5
04:15 1016 30 845 24.95 -16.9 1.5 82 -19.3 -2.7
04:20 1016 30 845 24.95 -17.1 1.2 82 -19.5 -3.1
04:25 1016 30 845 24.95 -17.4 0.7 82 -19.8 -3.6
04:30 1016 30 845 24.95 -17.8 0.1 84 -19.9 -3.8
04:35 1016 30 845 24.95 -17.7 0.1 84 -19.8 -3.6
04:40 1016 30 845 24.95 -17.7 0.1 84 -19.7 -3.5
04:45 1016 30 845 24.95 -17.8 0 85 -19.8 -3.6
04:50 1016 30 845 24.95 -17.8 0.1 85 -19.7 -3.5
04:55 1016 30 845 24.95 -17.7 0.1 85 -19.7 -3.5
05:00 1016 30 845 24.95 -17.7 0.2 85 -19.6 -3.3
05:05 1016 30 845 24.95 -17.6 0.3 85 -19.6 -3.3
05:10 1016 30 845 24.95 -17.7 0.2 84 -19.7 -3.5
05:15 1016 30 845 24.95 -17.9 -0.1 85 -19.8 -3.7
05:20 1016 30 845 24.95 -18.1 -0.6 84 -20.2 -4.3
05:25 1016 30 845 24.95 -18.4 -1.1 86 -20.2 -4.4
05:30 1016 30 845 24.95 -18.3 -1 86 -20.2 -4.3
05:35 1016 30 845 24.95 -18.2 -0.7 86 -19.9 -3.9
05:40 1016 30 845 24.95 -18 -0.5 86 -19.8 -3.7
05:45 1016 30 845 24.95 -17.8 -0.1 84 -19.9 -3.8
05:50 1016 30 845 24.95 -18.2 -0.7 85 -20.2 -4.3
05:55 1016 30 845 24.95 -18.1 -0.5 85 -20 -4
06:00 1016 30 845 24.95 -18.1 -0.6 85 -20 -4.1
06:05 1016 30 845 24.95 -18.3 -0.9 85 -20.2 -4.3
06:10 1016 30 845 24.95 -18.2 -0.7 86 -20 -4
06:15 1016 30 845 24.95 -17.9 -0.1 84 -19.9 -3.8
06:20 1016 30 845 24.95 -17.7 0.2 83 -19.9 -3.8
06:25 1016 30 845 24.95 -17.8 -0.1 83 -20 -4
06:30 1016 30 845 24.95 -17.9 -0.1 83 -20.1 -4.2
06:35 1016 30 846 24.98 -18.1 -0.6 83 -20.3 -4.5
06:40 1016 30 846 24.98 -18 -0.5 84 -20.1 -4.2
06:45 1016 30 845 24.95 -17.9 -0.1 82 -20.2 -4.4
06:50 1016 30 845 24.95 -18 -0.5 82 -20.4 -4.7
06:55 1016 30 845 24.95 -18.3 -0.9 82 -20.6 -5.2
07:00 1016 30 846 24.98 -18.4 -1.1 83 -20.6 -5.2
07:05 1016 30 846 24.98 -18.3 -1 83 -20.6 -5
07:10 1016 30 846 24.98 -18.5 -1.2 81 -20.9 -5.6
07:15 1016 30 846 24.98 -18.5 -1.2 84 -20.6 -5.1
07:20 1016 30 846 24.98 -18.2 -0.8 83 -20.4 -4.7
07:25 1016 30 846 24.98 -18.1 -0.5 83 -20.2 -4.4
07:30 1016 30 846 24.98 -17.9 -0.2 83 -20.1 -4.2
07:35 1016 30 846 24.98 -17.5 0.5 83 -19.7 -3.5
07:40 1016 30 846 24.98 -17.4 0.7 83 -19.6 -3.3
07:45 1016 30 846 24.98 -17.3 0.9 83 -19.6 -3.2
07:50 1016 30 846 24.98 -17.3 0.9 82 -19.7 -3.4
07:55 1016 30 846 24.98 -17.2 1 82 -19.6 -3.3
08:00 1016 30 846 24.98 -17.1 1.1 82 -19.5 -3.1
08:05 1016 30 846 24.98 -17.1 1.2 83 -19.4 -2.9
08:10 1016 30 845 24.95 -17 1.3 81 -19.6 -3.2
08:15 1016 30 845 24.95 -17.2 1 81 -19.7 -3.5
08:20 1016 30 845 24.95 -17.2 1 82 -19.5 -3.2
08:25 1016 30 845 24.95 -16.9 1.6 83 -19.2 -2.5
08:30 1016 30 846 24.98 -16.7 2 82 -19 -2.2
08:35 1016 30 846 24.98 -16.5 2.3 82 -19 -2.1
08:40 1016 30 846 24.98 -16.5 2.3 81 -19 -2.2
08:45 1016 30 846 24.98 -16.5 2.3 81 -19 -2.2
08:50 1016 30 846 24.98 -16.5 2.4 81 -18.9 -2.1
08:55 1016 30 846 24.98 -16.3 2.7 82 -18.6 -1.5
09:00 1017 30.03 846 24.98 -16 3.1 82 -18.4 -1.2
09:05 1017 30.03 846 24.98 -15.9 3.3 81 -18.4 -1.2
09:10 1017 30.03 846 24.98 -15.9 3.5 81 -18.4 -1.2
09:15 1017 30.03 846 24.98 -15.7 3.8 81 -18.3 -0.9
09:20 1017 30.03 846 24.98 -15.4 4.3 80 -18.1 -0.6
09:25 1017 30.03 846 24.98 -15.2 4.7 79 -18.1 -0.5
09:30 1017 30.03 846 24.98 -15.1 4.9 79 -17.9 -0.2
09:35 1017 30.03 846 24.98 -14.9 5.2 77 -18.1 -0.6
09:40 1017 30.03 846 24.98 -14.7 5.5 77 -17.9 -0.3
09:45 1017 30.03 846 24.98 -14.7 5.6 75 -18.1 -0.6
09:50 1017 30.03 846 24.98 -14.6 5.8 75 -18 -0.4
09:55 1017 30.03 846 24.98 -14.4 6.2 74 -18 -0.5
10:00 1017 30.03 846 24.98 -14.4 6.1 74 -18.1 -0.6
10:05 1017 30.03 846 24.98 -14.3 6.3 72 -18.3 -0.9
10:10 1017 30.03 846 24.98 -14.1 6.7 73 -17.9 -0.3
10:15 1017 30.03 846 24.98 -13.6 7.5 71 -17.7 0.1
10:20 1017 30.03 846 24.98 -13.2 8.2 71 -17.5 0.5
10:25 1017 30.03 846 24.98 -12.6 9.3 67 -17.5 0.5
10:30 1017 30.03 846 24.98 -11.7 10.9 64 -17.3 0.9
10:35 1017 30.03 846 24.98 -10.9 12.4 59 -17.4 0.8
10:40 1017 30.03 846 24.98 -10.8 12.6 59 -17.3 0.9
10:45 1017 30.03 846 24.98 -10.9 12.4 58 -17.7 0.1
10:50 1017 30.03 846 24.98 -10.9 12.4 57 -17.9 -0.1
10:55 1017 30.03 846 24.98 -11.3 11.7 57 -18.2 -0.8
11:00 1017 30.03 846 24.98 -11.4 11.4 56 -18.6 -1.5
11:05 1017 30.03 846 24.98 -11.3 11.6 56 -18.5 -1.4
11:10 1017 30.03 846 24.98 -11.4 11.6 55 -18.7 -1.6
11:15 1017 30.03 846 24.98 -11.3 11.6 55 -18.8 -1.8
11:20 1017 30.03 846 24.98 -11.2 11.8 56 -18.4 -1.2
11:25 1016 30 846 24.98 -11 12.2 57 -17.9 -0.2
11:30 1016 30 846 24.98 -11.2 11.9 60 -17.4 0.7
11:35 1016 30 846 24.98 -11.7 11 62 -17.6 0.3
11:40 1016 30 846 24.98 -11.6 11.1 62 -17.5 0.5
11:45 1016 30 846 24.98 -11.3 11.7 61 -17.5 0.5
11:50 1016 30 846 24.98 -11 12.3 59 -17.6 0.4
11:55 1016 30 846 24.98 -10.3 13.5 57 -17.3 0.9
12:00 1016 30 845 24.95 -10.2 13.6 56 -17.5 0.6
12:05 1016 30 845 24.95 -10.2 13.7 54 -17.8 -0.1
12:10 1016 30 845 24.95 -10 14.1 54 -17.6 0.4
12:15 1016 30 845 24.95 -10.4 13.2 57 -17.5 0.6
12:20 1016 30 845 24.95 -10.2 13.6 56 -17.5 0.6
12:25 1016 30 845 24.95 -10.6 13 57 -17.5 0.6
12:30 1016 30 845 24.95 -10.7 12.7 58 -17.5 0.4
12:35 1016 30 845 24.95 -10.4 13.2 55 -17.7 0.1
12:40 1016 30 845 24.95 -10.1 13.8 55 -17.5 0.4
12:45 1016 30 845 24.95 -10.1 13.8 55 -17.5 0.5
12:50 1016 30 845 24.95 -10.1 13.8 54 -17.8 0
12:55 1016 30 845 24.95 -10.2 13.7 55 -17.7 0.2
13:00 1016 30 845 24.95 -11.4 11.5 59 -17.8 -0.1
13:05 1016 30 845 24.95 -13.1 8.5 66 -18.1 -0.6
13:10 1016 30 845 24.95 -12.2 10 59 -18.8 -1.8
13:15 1016 30 845 24.95 -12.2 10 59 -18.6 -1.6
13:20 1016 30 845 24.95 -11.1 12 56 -18.2 -0.7
13:25 1016 30 845 24.95 -11.1 12.1 57 -17.9 -0.2
13:30 1016 30 845 24.95 -11 12.2 57 -17.9 -0.2
13:35 1016 30 845 24.95 -10.9 12.4 54 -18.4 -1.2
13:40 1016 30 845 24.95 -10.6 12.9 56 -17.8 -0.1
13:45 1016 30 845 24.95 -10.5 13 54 -18.1 -0.6
13:50 1016 30 845 24.95 -10.2 13.6 50 -18.7 -1.6
13:55 1016 30 845 24.95 -10.4 13.3 55 -17.7 0.1
14:00 1016 30 845 24.95 -10.4 13.2 52 -18.6 -1.4
14:05 1016 30 845 24.95 -10.8 12.5 57 -17.9 -0.2
14:10 1016 30 845 24.95 -11.3 11.6 55 -18.6 -1.5
14:15 1016 30 845 24.95 -10.5 13 53 -18.3 -1
14:20 1016 30 845 24.95 -10.2 13.6 50 -18.7 -1.6
14:25 1016 30 845 24.95 -9.7 14.5 49 -18.6 -1.5
14:30 1016 30 845 24.95 -10 13.9 52 -18.1 -0.7
14:35 1016 30 845 24.95 -10.4 13.4 52 -18.5 -1.2
14:40 1016 30 845 24.95 -10.1 13.9 52 -18.3 -0.9
14:45 1016 30 845 24.95 -10.7 12.8 51 -18.9 -2.1
14:50 1016 30 845 24.95 -10.9 12.4 51 -19.1 -2.4
14:55 1016 30 845 24.95 -11 12.3 52 -19 -2.2
15:00 1016 30 845 24.95 -9.8 14.3 48 -19 -2.1
15:05 1016 30 845 24.95 -9.4 15.1 48 -18.5 -1.3
15:10 1016 30 845 24.95 -9.7 14.6 50 -18.4 -1
15:15 1016 30 845 24.95 -9.6 14.7 49 -18.4 -1.1
15:20 1016 30 845 24.95 -9.5 14.8 47 -18.8 -1.8
15:25 1016 30 845 24.95 -9.6 14.8 49 -18.4 -1.1
15:30 1016 30 845 24.95 -9.7 14.6 49 -18.6 -1.4
15:35 1016 30 845 24.95 -10.5 13.2 51 -18.7 -1.7
15:40 1016 30 845 24.95 -10.6 13 52 -18.6 -1.5
15:45 1016 30 845 24.95 -10.7 12.8 53 -18.4 -1.2
15:50 1016 30 845 24.95 -11.1 12 55 -18.6 -1.4
15:55 1016 30 845 24.95 -11.4 11.4 57 -18.4 -1.1
16:00 1016 30 845 24.95 -12 10.5 58 -18.5 -1.4
16:05 1016 30 845 24.95 -12.5 9.5 61 -18.6 -1.5
16:10 1016 30 845 24.95 -12.9 8.8 62 -18.8 -1.9
16:15 1016 30 845 24.95 -13 8.5 61 -19 -2.3
16:20 1016 30 846 24.98 -13.6 7.5 63 -19.2 -2.5
16:25 1016 30 846 24.98 -14.1 6.6 65 -19.3 -2.8
16:30 1016 30 846 24.98 -14.3 6.4 66 -19.2 -2.6
16:35 1016 30 846 24.98 -14.2 6.5 65 -19.4 -2.9
16:40 1016 30 846 24.98 -14.3 6.3 66 -19.4 -2.8
16:45 1016 30 846 24.98 -14.8 5.4 67 -19.7 -3.4
16:50 1016 30 846 24.98 -14.6 5.6 67 -19.6 -3.2
16:55 1016 30 845 24.95 -14.2 6.5 64 -19.5 -3.2
17:00 1016 30 845 24.95 -14 6.9 64 -19.5 -3
17:05 1016 30 846 24.98 -14.1 6.5 65 -19.4 -3
17:10 1016 30 846 24.98 -13.9 7 63 -19.4 -2.9
17:15 1016 30 845 24.95 -13.5 7.7 63 -19.1 -2.4
17:20 1016 30 845 24.95 -13.7 7.3 64 -19.1 -2.3
17:25 1016 30 845 24.95 -13.7 7.4 64 -19.1 -2.3
17:30 1016 30 845 24.95 -13.8 7.2 65 -19.1 -2.4
17:35 1016 30 845 24.95 -13.8 7.1 67 -18.7 -1.7
17:40 1016 30 845 24.95 -13.6 7.5 68 -18.4 -1.1
17:45 1016 30 845 24.95 -13.5 7.6 67 -18.4 -1.1
17:50 1016 30 845 24.95 -13.7 7.3 68 -18.5 -1.3
17:55 1016 30 845 24.95 -13.9 6.9 70 -18.3 -1
18:00 1016 30 845 24.95 -14 6.9 69 -18.5 -1.3
18:05 1016 30 845 24.95 -13.9 7 70 -18.3 -0.9
18:10 1016 30 845 24.95 -14.1 6.7 70 -18.4 -1.1
18:15 1016 30 845 24.95 -14.3 6.3 70 -18.6 -1.5
18:20 1016 30 845 24.95 -14.3 6.2 72 -18.4 -1.1
18:25 1016 30 845 24.95 -14.3 6.2 72 -18.3 -1
18:30 1016 30 846 24.98 -14.6 5.8 72 -18.5 -1.3
18:35 1016 30 845 24.95 -14.7 5.6 73 -18.5 -1.3
18:40 1016 30 845 24.95 -14.7 5.6 72 -18.6 -1.5
18:45 1016 30 845 24.95 -14.7 5.6 72 -18.7 -1.7
18:50 1016 30 845 24.95 -14.6 5.7 72 -18.6 -1.4
18:55 1016 30 845 24.95 -14.4 6.1 69 -18.9 -1.9
19:00 1016 30 845 24.95 -14.3 6.2 69 -18.9 -2
19:05 1016 30 845 24.95 -14.2 6.4 69 -18.8 -1.9
19:10 1016 30 845 24.95 -14.1 6.7 68 -18.7 -1.7
19:15 1016 30 845 24.95 -13.9 7 66 -19 -2.1
19:20 1016 30 845 24.95 -13.8 7.2 66 -18.8 -1.9
19:25 1016 30 845 24.95 -13.7 7.3 66 -18.7 -1.7
19:30 1016 30 846 24.98 -13.9 7 68 -18.6 -1.4
19:35 1016 30 846 24.98 -13.8 7.1 67 -18.8 -1.8
19:40 1016 30 846 24.98 -14.3 6.3 69 -18.8 -1.9
19:45 1016 30 846 24.98 -14.2 6.5 69 -18.6 -1.5
19:50 1016 30 846 24.98 -14 6.8 67 -18.8 -1.9
19:55 1016 30 846 24.98 -14 6.7 68 -18.8 -1.8
20:00 1016 30 846 24.98 -14.1 6.6 69 -18.6 -1.5
20:05 1016 30 846 24.98 -14 6.9 68 -18.6 -1.6
20:10 1016 30 846 24.98 -14 6.8 69 -18.6 -1.4
20:15 1016 30 846 24.98 -14 6.8 70 -18.3 -1
20:20 1016 30 845 24.95 -13.9 7 69 -18.4 -1.1
20:25 1016 30 845 24.95 -14.1 6.7 73 -18 -0.4
20:30 1016 30 845 24.95 -14.6 5.6 72 -18.6 -1.5
20:35 1016 30 845 24.95 -14.6 5.7 70 -18.9 -2.1
20:40 1016 30 845 24.95 -14.4 6 69 -19 -2.1
20:45 1016 30 845 24.95 -14 6.8 66 -19 -2.2
20:50 1016 30 845 24.95 -13.7 7.3 66 -18.7 -1.7
20:55 1016 30 845 24.95 -13.4 7.9 66 -18.5 -1.3
21:00 1016 30 845 24.95 -13.3 8.1 67 -18.2 -0.7
21:05 1016 30 845 24.95 -13.4 8 69 -17.8 -0.1
21:10 1016 30 845 24.95 -13.2 8.2 67 -18.2 -0.7
21:15 1016 30 845 24.95 -13.3 8.1 70 -17.7 0.2
21:20 1016 30 845 24.95 -13.5 7.8 66 -18.6 -1.4
21:25 1016 30 845 24.95 -13.1 8.4 64 -18.6 -1.5
21:30 1016 30 845 24.95 -13 8.6 67 -17.9 -0.1
21:35 1016 30 845 24.95 -13.3 8 73 -17.2 1
21:40 1016 30 845 24.95 -13.4 7.9 67 -18.3 -0.9
21:45 1016 30 845 24.95 -13.2 8.3 69 -17.8 0
21:50 1016 30 845 24.95 -12.9 8.8 69 -17.4 0.7
21:55 1016 30 845 24.95 -12.6 9.3 71 -16.9 1.7
22:00 1016 30 845 24.95 -12.5 9.5 72 -16.6 2.1
22:05 1016 30 845 24.95 -12.1 10.2 71 -16.4 2.4
22:10 1016 30 845 24.95 -11.9 10.7 71 -16.1 3
22:15 1016 30 845 24.95 -12.1 10.3 72 -16.1 3
22:20 1016 30 845 24.95 -12.2 10 73 -16.2 2.9
22:25 1016 30 845 24.95 -12.2 10.1 69 -16.8 1.8
22:30 1016 30 845 24.95 -12.2 10.1 70 -16.6 2.1
22:35 1016 30 845 24.95 -12.1 10.2 67 -17 1.4
22:40 1016 30 845 24.95 -12.1 10.2 67 -17.1 1.2
22:45 1016 30 845 24.95 -12.1 10.2 66 -17.3 0.9
22:50 1016 30 845 24.95 -12.3 10 68 -16.9 1.5
22:55 1016 30 845 24.95 -12.3 9.9 68 -17 1.4
23:00 1016 30 845 24.95 -12.1 10.2 69 -16.6 2
23:05 1016 30 845 24.95 -12.1 10.3 70 -16.5 2.3
23:10 1016 30 845 24.95 -12.3 9.8 73 -16.3 2.7
23:15 1016 30 845 24.95 -12.4 9.7 73 -16.2 2.8
23:20 1016 30 845 24.95 -12.3 9.9 74 -16 3.1
23:25 1016 30 845 24.95 -12.2 10.1 72 -16.3 2.7
23:30 1016 30 845 24.95 -12.1 10.2 71 -16.4 2.5
23:35 1016 30 845 24.95 -12 10.4 71 -16.3 2.7
23:40 1016 30 845 24.95 -12 10.5 71 -16.2 2.8
23:45 1016 30 845 24.95 -12 10.5 71 -16.2 2.8
23:50 1016 30 845 24.95 -12.1 10.2 69 -16.7 2
23:55 1016 30 845 24.95 -12 10.4 72 -16.1 3
24:00 1016 30 845 24.95 -12.1 10.3 73 -16.1 3.1